< < Back
Terminal Aerodrome Forecast


Current Version              Previous Versions:   1  2  3  4  5  6  7  8  9  

Terminal Aerodrome Forecast

170
FTUS42 KGSP 290520
TAFHKY
TAF
KHKY 290520Z 2906/3006 VRB03KT P6SM FEW210
     FM291400 17003KT P6SM SCT220
     FM291600 20010G17KT P6SM BKN220
     FM300300 24006G14KT P6SM BKN050=



Latest METAR

091
SAUS70 KWBC 291000 RRQ
MTRHKY
METAR KHKY 290953Z AUTO 00000KT 10SM CLR M03/M06 A3028 RMK AO2 SLP250
T10281061


USA.gov is the U.S. government's official web portal to all federal, state and local government web resources and services.